createdAt,value
2023-05-25T00:02:26.126Z,76
2023-05-25T00:05:51.302Z,77
2023-05-25T00:09:16.552Z,77
2023-05-25T00:12:41.768Z,76
2023-05-25T00:16:07.024Z,76
2023-05-25T00:19:32.307Z,76
2023-05-25T00:22:57.506Z,76
2023-05-25T00:26:22.878Z,76
2023-05-25T00:29:48.220Z,76
2023-05-25T00:33:13.454Z,76
2023-05-25T00:36:38.706Z,76
2023-05-25T00:40:03.961Z,76
2023-05-25T00:43:29.231Z,76
2023-05-25T00:46:54.520Z,76
2023-05-25T00:50:19.820Z,76
2023-05-25T00:53:45.092Z,77
2023-05-25T00:57:10.386Z,77
2023-05-25T01:00:35.604Z,77
2023-05-25T01:04:00.869Z,77
2023-05-25T01:07:26.114Z,77
2023-05-25T01:10:51.400Z,77
2023-05-25T01:14:16.625Z,78
2023-05-25T01:17:41.883Z,78
2023-05-25T01:21:07.138Z,79
2023-05-25T01:24:32.431Z,79
2023-05-25T01:27:57.632Z,80
2023-05-25T01:31:23.032Z,80
2023-05-25T01:34:48.254Z,80
2023-05-25T01:38:13.490Z,80
2023-05-25T01:41:38.705Z,81
2023-05-25T01:45:04.033Z,81
2023-05-25T01:48:29.261Z,81
2023-05-25T01:51:54.589Z,81
2023-05-25T01:55:19.808Z,82
2023-05-25T01:58:45.096Z,81
2023-05-25T02:02:10.393Z,81
2023-05-25T02:05:35.586Z,81
2023-05-25T02:09:00.792Z,81
2023-05-25T02:12:26.046Z,80
2023-05-25T02:15:51.369Z,80
2023-05-25T02:19:16.726Z,80
2023-05-25T02:22:41.855Z,80
2023-05-25T02:26:07.154Z,81
2023-05-25T02:29:32.432Z,81
2023-05-25T02:32:57.732Z,81
2023-05-25T02:36:23.701Z,81
2023-05-25T02:39:48.995Z,81
2023-05-25T02:43:14.274Z,81
2023-05-25T02:46:39.504Z,81
2023-05-25T02:50:04.735Z,81
2023-05-25T02:53:29.998Z,81
2023-05-25T02:56:55.254Z,81
2023-05-25T03:00:20.517Z,81
2023-05-25T03:03:45.847Z,81
2023-05-25T03:07:11.034Z,81
2023-05-25T03:10:36.387Z,81
2023-05-25T03:14:01.530Z,81
2023-05-25T03:17:26.986Z,81
2023-05-25T03:20:52.167Z,81
2023-05-25T03:24:17.433Z,81
2023-05-25T03:27:42.703Z,81
2023-05-25T03:31:07.931Z,82
2023-05-25T03:34:33.221Z,82
2023-05-25T03:37:58.521Z,82
2023-05-25T03:41:23.761Z,83
2023-05-25T03:44:49.047Z,83
2023-05-25T03:48:14.275Z,83
2023-05-25T03:51:39.550Z,84
2023-05-25T03:55:04.889Z,84
2023-05-25T03:58:30.119Z,84
2023-05-25T04:01:55.402Z,84
2023-05-25T04:05:20.642Z,84
2023-05-25T04:08:45.927Z,85
2023-05-25T04:12:11.183Z,84
2023-05-25T04:15:36.461Z,85
2023-05-25T04:19:01.762Z,85
2023-05-25T04:22:26.981Z,85
2023-05-25T04:25:52.264Z,86
2023-05-25T04:29:17.557Z,86
2023-05-25T04:32:44.633Z,87
2023-05-25T04:36:08.043Z,87
2023-05-25T04:39:33.286Z,88
2023-05-25T04:42:58.569Z,87
2023-05-25T04:46:23.918Z,86
2023-05-25T04:49:49.094Z,86
2023-05-25T04:53:14.392Z,87
2023-05-25T04:56:40.132Z,86
2023-05-25T05:00:05.354Z,86
2023-05-25T05:03:30.655Z,86
2023-05-25T05:06:58.132Z,87
2023-05-25T05:10:21.155Z,88
2023-05-25T05:13:46.389Z,88
2023-05-25T05:17:11.636Z,88
2023-05-25T05:20:36.985Z,88
2023-05-25T05:24:02.109Z,88
2023-05-25T05:27:27.399Z,88
2023-05-25T05:30:53.233Z,88
2023-05-25T05:34:19.310Z,87
2023-05-25T05:37:44.576Z,87
2023-05-25T05:41:09.824Z,87
2023-05-25T05:44:35.173Z,87
2023-05-25T05:48:00.324Z,85
2023-05-25T05:51:25.584Z,85
2023-05-25T05:54:50.854Z,85
2023-05-25T05:58:16.125Z,84
2023-05-25T06:01:43.026Z,82
2023-05-25T06:05:08.273Z,83
2023-05-25T06:08:33.523Z,83
2023-05-25T06:11:58.774Z,84
2023-05-25T06:15:24.016Z,85
2023-05-25T06:18:49.404Z,82
2023-05-25T06:22:14.578Z,82
2023-05-25T06:25:39.843Z,81
2023-05-25T06:29:05.117Z,81
2023-05-25T06:32:30.454Z,81
2023-05-25T06:39:20.820Z,81
2023-05-25T06:42:46.024Z,79
2023-05-25T06:46:11.286Z,77
2023-05-25T06:49:36.482Z,77
2023-05-25T06:53:01.726Z,78
2023-05-25T06:56:26.905Z,76
2023-05-25T06:59:52.108Z,77
2023-05-25T07:03:17.316Z,75
2023-05-25T07:06:42.542Z,75
2023-05-25T07:10:07.898Z,73
2023-05-25T07:13:33.024Z,75
2023-05-25T07:16:58.248Z,75
2023-05-25T07:20:23.553Z,75
2023-05-25T07:23:48.716Z,72
2023-05-25T07:27:13.961Z,73
2023-05-25T07:30:39.134Z,73
2023-05-25T07:34:04.350Z,72
2023-05-25T07:37:30.135Z,73
2023-05-25T07:40:55.345Z,73
2023-05-25T07:44:20.601Z,72
2023-05-25T07:47:45.809Z,72
2023-05-25T07:51:11.019Z,71
2023-05-25T07:54:36.297Z,72
2023-05-25T07:58:01.482Z,74
2023-05-25T08:01:27.096Z,74
2023-05-25T08:04:52.004Z,71
2023-05-25T08:08:17.113Z,72
2023-05-25T08:11:42.354Z,70
2023-05-25T08:15:07.566Z,72
2023-05-25T08:18:32.820Z,73
2023-05-25T08:21:58.076Z,71
2023-05-25T08:25:23.339Z,69
2023-05-25T08:28:48.746Z,70
2023-05-25T08:32:13.990Z,70
2023-05-25T08:35:39.284Z,70
2023-05-25T08:39:04.506Z,69
2023-05-25T08:42:29.802Z,68
2023-05-25T08:45:55.076Z,67
2023-05-25T08:49:20.368Z,70
2023-05-25T08:52:45.699Z,69
2023-05-25T08:56:10.968Z,69
2023-05-25T08:59:36.255Z,67
2023-05-25T09:03:01.586Z,66
2023-05-25T09:06:26.859Z,66
2023-05-25T09:09:52.181Z,67
2023-05-25T09:13:21.737Z,66
2023-05-25T09:16:42.790Z,69
2023-05-25T09:20:08.102Z,69
2023-05-25T09:23:33.424Z,67
2023-05-25T09:26:58.760Z,66
2023-05-25T09:30:24.049Z,64
2023-05-25T09:33:49.402Z,64
2023-05-25T09:37:15.032Z,66
2023-05-25T09:40:40.249Z,66
2023-05-25T09:44:10.869Z,67
2023-05-25T09:47:31.398Z,67
2023-05-25T09:50:57.014Z,63
2023-05-25T09:54:22.678Z,64
2023-05-25T09:57:48.588Z,64
2023-05-25T10:01:14.278Z,66
2023-05-25T10:04:39.710Z,67
2023-05-25T10:08:05.224Z,68
2023-05-25T10:11:30.806Z,64
2023-05-25T10:14:56.399Z,63
2023-05-25T10:18:21.767Z,63
2023-05-25T10:21:47.176Z,66
2023-05-25T10:25:12.584Z,64
2023-05-25T10:28:37.916Z,64
2023-05-25T10:32:03.373Z,65
2023-05-25T10:35:29.996Z,64
2023-05-25T10:38:54.758Z,64
2023-05-25T10:42:20.472Z,66
2023-05-25T10:45:46.428Z,62
2023-05-25T10:49:12.035Z,63
2023-05-25T10:52:37.991Z,64
2023-05-25T10:56:03.896Z,63
2023-05-25T10:59:29.724Z,63
2023-05-25T11:02:55.663Z,62
2023-05-25T11:06:32.656Z,63
2023-05-25T11:10:02.716Z,62
2023-05-25T11:13:27.932Z,64
2023-05-25T11:16:53.245Z,62
2023-05-25T11:20:18.456Z,63
2023-05-25T11:23:43.680Z,61
2023-05-25T11:27:08.987Z,59
2023-05-25T11:30:34.211Z,60
2023-05-25T11:33:59.464Z,60
2023-05-25T11:37:24.735Z,59
2023-05-25T11:40:50.144Z,58
2023-05-25T11:44:15.316Z,62
2023-05-25T11:47:40.590Z,62
2023-05-25T11:51:05.875Z,63
2023-05-25T11:54:31.135Z,62
2023-05-25T11:57:56.400Z,60
2023-05-25T12:01:21.710Z,60
2023-05-25T12:04:47.030Z,62
2023-05-25T12:08:12.232Z,61
2023-05-25T12:11:37.514Z,61
2023-05-25T12:15:02.781Z,62
2023-05-25T12:18:28.288Z,64
2023-05-25T12:21:53.571Z,61
2023-05-25T12:25:18.826Z,58
2023-05-25T12:28:44.056Z,60
2023-05-25T12:32:09.315Z,59
2023-05-25T12:35:34.606Z,61
2023-05-25T12:38:59.851Z,59
2023-05-25T12:42:25.153Z,58
2023-05-25T12:45:50.403Z,58
2023-05-25T12:49:15.716Z,58
2023-05-25T12:52:40.998Z,56
2023-05-25T12:56:06.237Z,57
2023-05-25T12:59:31.544Z,58
2023-05-25T13:02:56.799Z,56
2023-05-25T13:06:22.086Z,61
2023-05-25T13:09:47.385Z,59
2023-05-25T13:13:12.570Z,58
2023-05-25T13:16:37.888Z,63
2023-05-25T13:20:03.117Z,59
2023-05-25T13:23:28.442Z,57
2023-05-25T13:26:53.740Z,60
2023-05-25T13:30:18.990Z,56
2023-05-25T13:33:44.241Z,57
2023-05-25T13:37:09.524Z,57
2023-05-25T13:40:34.792Z,57
2023-05-25T13:44:00.140Z,57
2023-05-25T13:47:26.474Z,58
2023-05-25T13:50:51.652Z,57
2023-05-25T13:54:16.932Z,59
2023-05-25T13:57:42.162Z,61
2023-05-25T14:01:07.450Z,62
2023-05-25T14:04:32.621Z,61
2023-05-25T14:07:57.875Z,60
2023-05-25T14:11:28.269Z,59
2023-05-25T14:14:48.359Z,60
2023-05-25T14:18:13.649Z,58
2023-05-25T14:21:38.835Z,59
2023-05-25T14:25:04.097Z,60
2023-05-25T14:28:29.384Z,60
2023-05-25T14:31:54.674Z,60
2023-05-25T14:35:19.911Z,58
2023-05-25T14:38:45.155Z,61
2023-05-25T14:42:10.402Z,60
2023-05-25T14:45:35.655Z,58
2023-05-25T14:49:01.211Z,59
2023-05-25T14:52:26.536Z,59
2023-05-25T14:55:51.767Z,61
2023-05-25T14:59:17.014Z,58
2023-05-25T15:02:42.267Z,59
2023-05-25T15:06:07.521Z,60
2023-05-25T15:09:32.776Z,60
2023-05-25T15:46:07.816Z,60
2023-05-25T15:49:32.969Z,60
2023-05-25T15:52:58.442Z,60
2023-05-25T15:56:23.678Z,60
2023-05-25T15:59:48.911Z,60
2023-05-25T16:03:14.169Z,61
2023-05-25T16:06:39.404Z,62
2023-05-25T16:10:04.725Z,63
2023-05-25T16:13:30.747Z,63
2023-05-25T16:17:04.621Z,61
2023-05-25T16:20:29.922Z,61
2023-05-25T16:23:57.733Z,61
2023-05-25T16:27:23.804Z,61
2023-05-25T16:30:48.973Z,61
2023-05-25T16:34:14.190Z,61
2023-05-25T16:37:39.522Z,61
2023-05-25T16:41:04.701Z,60
2023-05-25T16:44:29.912Z,61
2023-05-25T16:47:55.183Z,61
2023-05-25T16:51:20.454Z,62
2023-05-25T16:54:45.685Z,62
2023-05-25T16:58:10.906Z,61
2023-05-25T17:01:36.252Z,62
2023-05-25T17:05:01.462Z,62
2023-05-25T17:08:26.681Z,62
2023-05-25T17:11:53.531Z,62
2023-05-25T17:15:17.110Z,62
2023-05-25T17:18:42.354Z,61
2023-05-25T17:22:07.595Z,62
2023-05-25T17:25:34.236Z,62
2023-05-25T17:28:58.086Z,64
2023-05-25T17:32:23.258Z,64
2023-05-25T17:35:48.468Z,63
2023-05-25T17:39:13.729Z,63
2023-05-25T17:42:38.954Z,62
2023-05-25T17:46:04.279Z,63
2023-05-25T17:49:29.418Z,63
2023-05-25T17:52:54.656Z,64
2023-05-25T17:56:19.864Z,64
2023-05-25T17:59:45.824Z,64
2023-05-25T18:03:10.497Z,64
2023-05-25T18:06:35.550Z,65
2023-05-25T18:10:00.772Z,65
2023-05-25T18:13:26.023Z,64
2023-05-25T18:16:51.322Z,65
2023-05-25T18:20:16.542Z,66
2023-05-25T18:23:41.763Z,66
2023-05-25T18:27:06.978Z,66
2023-05-25T18:30:32.313Z,66
2023-05-25T18:33:57.579Z,66
2023-05-25T18:37:22.868Z,66
2023-05-25T18:40:48.078Z,67
2023-05-25T18:44:13.358Z,67
2023-05-25T18:47:38.624Z,68
2023-05-25T18:51:03.776Z,67
2023-05-25T18:54:29.040Z,68
2023-05-25T18:57:54.254Z,68
2023-05-25T19:01:19.499Z,69
2023-05-25T19:04:44.821Z,69
2023-05-25T19:08:10.063Z,70
2023-05-25T19:11:35.354Z,69
2023-05-25T19:15:00.551Z,69
2023-05-25T19:18:25.810Z,69
2023-05-25T19:21:51.005Z,70
2023-05-25T19:25:16.204Z,70
2023-05-25T19:28:41.591Z,70
2023-05-25T19:32:06.918Z,70
2023-05-25T19:35:32.129Z,70
2023-05-25T19:38:57.374Z,70
2023-05-25T19:42:22.635Z,71
2023-05-25T19:45:48.044Z,71
2023-05-25T19:49:13.097Z,71
2023-05-25T19:52:38.371Z,70
2023-05-25T19:56:03.581Z,71
2023-05-25T19:59:28.813Z,71
2023-05-25T20:02:54.150Z,72
2023-05-25T20:06:19.233Z,71
2023-05-25T20:09:44.466Z,72
2023-05-25T20:13:09.723Z,72
2023-05-25T20:16:35.042Z,72
2023-05-25T20:20:00.346Z,72
2023-05-25T20:23:25.527Z,72
2023-05-25T20:26:50.759Z,73
2023-05-25T20:30:16.007Z,73
2023-05-25T20:33:41.247Z,73
2023-05-25T20:37:06.507Z,73
2023-05-25T20:40:32.662Z,73
2023-05-25T20:43:57.890Z,73
2023-05-25T20:47:23.198Z,73
2023-05-25T20:50:48.440Z,74
2023-05-25T20:54:13.721Z,74
2023-05-25T20:57:38.941Z,74
2023-05-25T21:01:04.190Z,75
2023-05-25T21:04:31.702Z,74
2023-05-25T21:07:54.661Z,75
2023-05-25T21:11:19.906Z,75
2023-05-25T21:14:45.097Z,75
2023-05-25T21:18:10.414Z,75
2023-05-25T21:21:35.634Z,75
2023-05-25T21:25:00.923Z,74
2023-05-25T21:28:26.182Z,75
2023-05-25T21:31:51.447Z,75
2023-05-25T21:35:16.697Z,75
2023-05-25T21:38:41.937Z,75
2023-05-25T21:42:07.162Z,75
2023-05-25T21:45:32.446Z,75
2023-05-25T21:48:57.665Z,76
2023-05-25T21:52:22.896Z,76
2023-05-25T21:55:48.159Z,76
2023-05-25T21:59:13.378Z,76
2023-05-25T22:02:38.754Z,76
2023-05-25T22:06:03.858Z,77
2023-05-25T22:09:29.106Z,76
2023-05-25T22:12:54.338Z,76
2023-05-25T22:16:19.611Z,77
2023-05-25T22:19:46.885Z,77
2023-05-25T22:23:10.045Z,77
2023-05-25T22:26:35.308Z,77
2023-05-25T22:30:00.590Z,77
2023-05-25T22:33:25.771Z,77
2023-05-25T22:36:51.051Z,77
2023-05-25T22:40:16.270Z,78
2023-05-25T22:43:41.506Z,78
2023-05-25T22:47:06.742Z,78
2023-05-25T22:50:31.964Z,78
2023-05-25T22:53:57.226Z,78
2023-05-25T22:57:22.421Z,79
2023-05-25T23:00:47.636Z,78
2023-05-25T23:04:12.972Z,79
2023-05-25T23:07:38.130Z,79
2023-05-25T23:11:03.379Z,79
2023-05-25T23:14:28.610Z,79
2023-05-25T23:17:53.876Z,79
2023-05-25T23:21:19.090Z,79
2023-05-25T23:24:44.360Z,79
2023-05-25T23:28:09.621Z,79
2023-05-25T23:31:34.928Z,79
2023-05-25T23:35:00.129Z,79
2023-05-25T23:38:25.352Z,79
2023-05-25T23:41:50.615Z,79
2023-05-25T23:45:15.867Z,79
2023-05-25T23:48:41.088Z,79
2023-05-25T23:52:06.312Z,79
2023-05-25T23:55:31.564Z,79
2023-05-25T23:58:56.811Z,80
